Time;durP1;ratioP1;P1;durP2;ratioP2;P2;SDS_P1;SDS_P2;PMS_P1;PMS_P2;Temp;Humidity;BMP_temperature;BMP_pressure;BME280_temperature;BME280_humidity;BME280_pressure;Samples;Min_cycle;Max_cycle;Signal;HPM_P1;HPM_P2
2022/08/15 00:01:47;;;;;;;4.15;2.90;;;13.10;56.90;;;;;;5031057;28;20196;-39
2022/08/15 00:04:20;;;;;;;5.82;3.15;;;13.10;57.00;;;;;;5030934;28;20203;-36
2022/08/15 00:06:50;;;;;;;4.30;2.63;;;13.10;57.10;;;;;;5033419;28;20691;-37
2022/08/15 00:09:23;;;;;;;4.53;2.85;;;13.10;57.10;;;;;;5049304;28;20299;-36
2022/08/15 00:11:56;;;;;;;4.88;2.65;;;13.10;57.20;;;;;;5050693;28;20226;-36
2022/08/15 00:14:30;;;;;;;5.65;3.10;;;13.20;57.20;;;;;;5049923;28;20191;-37
2022/08/15 00:17:01;;;;;;;4.72;3.25;;;13.20;57.10;;;;;;5050069;28;20618;-39
2022/08/15 00:19:34;;;;;;;4.60;2.90;;;13.20;57.00;;;;;;5050164;28;20667;-45
2022/08/15 00:22:07;;;;;;;4.50;2.70;;;13.20;57.00;;;;;;5050000;28;20191;-43
2022/08/15 00:24:39;;;;;;;6.75;3.17;;;13.30;57.10;;;;;;5049439;28;20192;-42
2022/08/15 00:27:11;;;;;;;3.85;2.25;;;13.30;57.20;;;;;;5049999;28;20238;-38
2022/08/15 00:29:42;;;;;;;5.90;2.78;;;13.30;57.20;;;;;;5046296;28;20196;-37
2022/08/15 00:32:16;;;;;;;4.65;2.72;;;13.30;57.20;;;;;;5046838;28;20227;-40
2022/08/15 00:34:49;;;;;;;5.03;2.58;;;13.30;57.30;;;;;;5050723;28;20748;-42
2022/08/15 00:37:20;;;;;;;4.57;2.78;;;13.30;57.30;;;;;;5049329;28;20306;-42
2022/08/15 00:39:50;;;;;;;5.68;2.58;;;13.30;57.30;;;;;;5049175;28;20237;-36
2022/08/15 00:42:25;;;;;;;4.18;2.58;;;13.40;57.40;;;;;;5049210;28;20199;-47
2022/08/15 00:44:56;;;;;;;3.72;2.45;;;13.40;57.40;;;;;;5049395;28;20642;-46
2022/08/15 00:47:27;;;;;;;6.10;2.60;;;13.40;57.50;;;;;;5049822;28;20710;-37
2022/08/15 00:49:59;;;;;;;5.03;2.47;;;13.40;57.40;;;;;;5049408;28;20198;-43
2022/08/15 00:52:32;;;;;;;4.40;2.53;;;13.40;57.30;;;;;;5049483;28;20206;-37
2022/08/15 00:55:06;;;;;;;4.90;2.53;;;13.40;57.20;;;;;;5050154;28;20200;-37
2022/08/15 00:57:41;;;;;;;5.45;2.95;;;13.50;57.20;;;;;;5049864;28;20226;-55
2022/08/15 01:00:15;;;;;;;4.25;2.70;;;13.50;57.80;;;;;;5049471;28;20198;-43
2022/08/15 01:02:46;;;;;;;4.40;2.53;;;13.50;57.30;;;;;;5050196;28;20685;-36
2022/08/15 01:05:20;;;;;;;3.97;2.60;;;13.50;57.30;;;;;;5048556;28;20195;-36
2022/08/15 01:07:51;;;;;;;4.60;2.78;;;13.60;57.50;;;;;;5047001;28;20309;-37
2022/08/15 01:10:22;;;;;;;4.20;2.53;;;13.60;57.50;;;;;;5049122;28;20567;-41
2022/08/15 01:12:53;;;;;;;4.97;2.90;;;13.60;57.60;;;;;;5050252;28;20205;-40
2022/08/15 01:15:25;;;;;;;3.58;2.35;;;13.60;57.60;;;;;;5049599;28;20187;-36
2022/08/15 01:17:56;;;;;;;4.18;2.55;;;13.60;57.60;;;;;;5049255;28;20223;-40
2022/08/15 01:20:32;;;;;;;4.97;2.53;;;13.60;57.70;;;;;;5049306;28;20188;-43
2022/08/15 01:23:11;;;;;;;3.65;2.38;;;13.60;57.80;;;;;;5048799;28;20199;-40
2022/08/15 01:25:47;;;;;;;4.85;2.67;;;13.60;57.80;;;;;;5049273;28;20195;-50
2022/08/15 01:28:21;;;;;;;4.65;2.50;;;13.70;57.60;;;;;;5044065;28;20214;-37
2022/08/15 01:30:54;;;;;;;4.15;2.55;;;13.70;57.50;;;;;;5052668;28;20306;-36
2022/08/15 01:33:25;;;;;;;6.15;2.58;;;13.70;57.40;;;;;;5053154;28;20196;-41
2022/08/15 01:35:58;;;;;;;6.43;2.55;;;13.70;57.40;;;;;;5053593;28;20242;-41
2022/08/15 01:38:33;;;;;;;4.15;2.42;;;13.70;57.50;;;;;;5052906;28;20310;-37
2022/08/15 01:41:10;;;;;;;4.72;2.47;;;13.70;57.60;;;;;;5053448;28;20191;-39
2022/08/15 01:43:48;;;;;;;4.53;2.15;;;13.80;57.70;;;;;;5052922;28;20191;-37
2022/08/15 01:46:23;;;;;;;4.28;2.50;;;13.80;57.70;;;;;;5052696;28;20207;-44
2022/08/15 01:49:01;;;;;;;3.17;2.25;;;13.80;57.70;;;;;;5053084;28;20230;-40
2022/08/15 01:51:32;;;;;;;4.18;2.35;;;13.80;57.80;;;;;;5052503;28;20246;-38
2022/08/15 01:54:09;;;;;;;5.45;2.03;;;13.90;57.90;;;;;;5052808;28;20198;-49
2022/08/15 01:56:45;;;;;;;3.97;2.45;;;13.90;57.90;;;;;;5052966;28;20214;-41
2022/08/15 01:59:19;;;;;;;5.25;2.20;;;13.90;57.80;;;;;;5052675;28;20259;-36
2022/08/15 02:01:51;;;;;;;4.45;2.55;;;13.90;57.80;;;;;;5051983;28;20242;-40
2022/08/15 02:04:28;;;;;;;5.50;2.60;;;13.90;57.70;;;;;;5052361;28;20203;-36
2022/08/15 02:06:59;;;;;;;4.45;2.13;;;13.90;57.60;;;;;;5048592;28;20223;-36
2022/08/15 02:09:30;;;;;;;5.38;2.20;;;13.90;57.50;;;;;;5052784;28;20199;-36
2022/08/15 02:12:05;;;;;;;6.55;2.53;;;14.00;57.60;;;;;;5035170;28;20220;-43
2022/08/15 02:14:35;;;;;;;3.60;1.90;;;14.00;57.60;;;;;;5032097;28;20266;-40
2022/08/15 02:17:06;;;;;;;4.65;1.83;;;14.00;57.70;;;;;;5031765;28;20231;-43
2022/08/15 02:19:38;;;;;;;4.72;2.15;;;14.00;57.90;;;;;;5032294;28;20203;-39
2022/08/15 02:22:10;;;;;;;5.65;2.13;;;14.00;57.90;;;;;;5039486;28;20283;-39
2022/08/15 02:24:41;;;;;;;4.53;2.33;;;14.00;57.90;;;;;;5052449;28;20202;-36
2022/08/15 02:27:14;;;;;;;5.25;2.15;;;14.10;58.00;;;;;;5052624;28;20587;-36
2022/08/15 02:29:45;;;;;;;4.03;2.38;;;14.10;58.00;;;;;;5051530;28;20675;-36
2022/08/15 02:32:19;;;;;;;5.30;2.22;;;14.10;58.00;;;;;;5052277;28;20219;-43
2022/08/15 02:34:50;;;;;;;6.05;2.20;;;14.10;58.00;;;;;;5052090;28;20202;-37
2022/08/15 02:37:21;;;;;;;7.82;2.92;;;14.10;57.90;;;;;;5051456;28;20312;-37
2022/08/15 02:39:54;;;;;;;5.05;2.13;;;14.10;57.80;;;;;;5051619;28;20282;-39
2022/08/15 02:42:27;;;;;;;5.07;2.17;;;14.20;57.80;;;;;;5047956;28;20626;-38
2022/08/15 02:44:57;;;;;;;4.25;1.95;;;14.20;57.70;;;;;;5031845;28;20202;-39
2022/08/15 02:47:29;;;;;;;5.07;2.58;;;14.20;57.80;;;;;;5032395;28;20735;-39
2022/08/15 02:50:01;;;;;;;4.68;2.47;;;14.20;57.80;;;;;;5031680;28;20192;-36
2022/08/15 02:52:32;;;;;;;6.43;2.53;;;14.30;57.70;;;;;;5031669;28;20315;-43
2022/08/15 02:55:03;;;;;;;4.93;2.20;;;14.30;57.80;;;;;;5032487;28;20208;-43
2022/08/15 02:57:36;;;;;;;4.88;2.28;;;14.30;57.80;;;;;;5045990;28;20216;-44
2022/08/15 03:00:08;;;;;;;4.88;2.08;;;14.30;57.90;;;;;;5051595;28;20286;-37
2022/08/15 03:02:54;;;;;;;6.05;2.35;;;14.30;57.90;;;;;;5050683;28;20822;-36
2022/08/15 03:05:26;;;;;;;4.45;2.40;;;14.30;57.90;;;;;;5051519;28;20200;-36
2022/08/15 03:07:57;;;;;;;5.35;2.20;;;14.40;58.00;;;;;;5048369;28;20694;-38
2022/08/15 03:10:28;;;;;;;6.63;2.55;;;14.40;58.00;;;;;;5051301;28;20203;-37
2022/08/15 03:13:03;;;;;;;7.45;2.78;;;14.40;58.00;;;;;;5051768;28;20231;-39
2022/08/15 03:15:41;;;;;;;3.40;2.20;;;14.40;57.90;;;;;;5051140;28;20282;-37
2022/08/15 03:18:12;;;;;;;4.20;2.08;;;14.40;57.70;;;;;;5051575;28;20282;-37
2022/08/15 03:20:45;;;;;;;4.50;2.13;;;14.50;57.70;;;;;;5051042;28;20210;-36
2022/08/15 03:23:16;;;;;;;3.95;2.15;;;14.50;57.70;;;;;;5051604;28;20200;-36
2022/08/15 03:25:49;;;;;;;3.20;2.30;;;14.40;57.60;;;;;;5050961;28;20242;-36
2022/08/15 03:28:24;;;;;;;5.28;2.35;;;14.50;57.60;;;;;;5051411;28;20203;-38
2022/08/15 03:30:54;;;;;;;4.57;2.42;;;14.50;57.60;;;;;;5047519;28;20674;-36
2022/08/15 03:33:25;;;;;;;5.28;2.38;;;14.50;57.60;;;;;;5030855;28;20279;-37
2022/08/15 03:35:56;;;;;;;4.15;2.60;;;14.50;58.00;;;;;;5030684;28;20238;-43
2022/08/15 03:38:27;;;;;;;5.78;2.38;;;14.50;57.70;;;;;;5031349;28;20203;-39
2022/08/15 03:40:58;;;;;;;5.97;2.40;;;14.50;57.90;;;;;;5031090;28;20192;-36
2022/08/15 03:43:32;;;;;;;4.15;2.15;;;14.50;58.00;;;;;;5031597;28;20648;-37
2022/08/15 03:46:08;;;;;;;6.18;2.50;;;14.50;57.90;;;;;;5030957;28;20588;-36
2022/08/15 03:48:44;;;;;;;4.18;1.98;;;14.50;57.90;;;;;;5030764;28;20192;-41
2022/08/15 03:51:17;;;;;;;5.00;2.50;;;14.60;57.80;;;;;;5030064;28;20963;-36
2022/08/15 03:53:50;;;;;;;3.50;2.08;;;14.60;57.80;;;;;;5030614;28;20254;-37
2022/08/15 03:56:24;;;;;;;6.03;2.67;;;14.60;57.70;;;;;;5035364;28;20238;-36
2022/08/15 03:58:58;;;;;;;6.07;2.90;;;14.60;57.70;;;;;;5051453;28;20200;-36
2022/08/15 04:01:31;;;;;;;4.65;2.63;;;14.70;57.70;;;;;;5050692;28;20187;-36
2022/08/15 04:04:02;;;;;;;6.97;2.60;;;14.70;57.70;;;;;;5050123;28;20207;-36
2022/08/15 04:06:33;;;;;;;4.70;2.78;;;14.70;57.70;;;;;;5049021;28;20210;-36
2022/08/15 04:09:04;;;;;;;4.78;2.50;;;14.70;57.80;;;;;;5050624;28;20191;-42
2022/08/15 04:11:34;;;;;;;4.97;2.80;;;14.70;57.80;;;;;;5050774;28;20215;-36
2022/08/15 04:14:08;;;;;;;5.03;3.22;;;14.70;57.80;;;;;;5050007;28;20686;-36
2022/08/15 04:16:39;;;;;;;6.45;2.95;;;14.70;57.90;;;;;;5049256;28;20207;-38
2022/08/15 04:19:09;;;;;;;6.82;2.75;;;14.70;58.00;;;;;;5049832;28;20236;-38
2022/08/15 04:21:40;;;;;;;6.07;2.88;;;14.80;58.00;;;;;;5049671;28;20192;-36
2022/08/15 04:24:12;;;;;;;5.35;3.00;;;14.70;57.80;;;;;;5049270;28;20659;-36
2022/08/15 04:26:44;;;;;;;3.65;2.58;;;14.80;57.90;;;;;;5050390;28;20211;-37
2022/08/15 04:29:16;;;;;;;6.15;2.80;;;14.80;57.90;;;;;;5031246;28;20204;-36
2022/08/15 04:31:47;;;;;;;5.78;2.50;;;14.80;58.00;;;;;;5029673;28;20215;-37
2022/08/15 04:34:18;;;;;;;6.80;3.28;;;14.80;58.00;;;;;;5029203;28;20192;-38
2022/08/15 04:36:48;;;;;;;5.78;2.80;;;14.80;58.00;;;;;;5029279;28;20687;-36
2022/08/15 04:39:20;;;;;;;5.38;3.05;;;14.80;58.00;;;;;;5030001;28;20227;-37
2022/08/15 04:41:51;;;;;;;4.82;2.55;;;14.80;57.90;;;;;;5029344;28;20188;-37
2022/08/15 04:44:24;;;;;;;5.40;3.15;;;14.80;57.90;;;;;;5030416;28;20200;-41
2022/08/15 04:46:55;;;;;;;6.28;2.80;;;14.80;58.00;;;;;;5029200;28;20204;-36
2022/08/15 04:49:26;;;;;;;4.15;2.45;;;14.80;57.90;;;;;;5029871;28;20195;-36
2022/08/15 04:51:56;;;;;;;5.82;3.20;;;14.80;58.00;;;;;;5029559;28;20695;-39
2022/08/15 04:54:27;;;;;;;4.43;2.72;;;14.80;58.00;;;;;;5029636;28;20204;-36
2022/08/15 04:57:01;;;;;;;5.47;3.10;;;14.80;58.00;;;;;;5039830;28;20588;-37
2022/08/15 04:59:34;;;;;;;6.53;2.75;;;14.80;58.00;;;;;;5049545;28;20579;-37
2022/08/15 05:02:05;;;;;;;5.47;2.97;;;14.80;58.00;;;;;;5049713;28;20206;-36
2022/08/15 05:04:36;;;;;;;6.00;3.20;;;14.90;58.00;;;;;;5052718;28;20199;-37
2022/08/15 05:07:08;;;;;;;4.15;2.35;;;14.90;58.00;;;;;;5052949;28;20218;-38
2022/08/15 05:09:39;;;;;;;5.20;2.75;;;14.90;58.00;;;;;;5050119;28;20831;-41
2022/08/15 05:12:10;;;;;;;5.30;3.10;;;14.90;58.00;;;;;;5053123;28;20238;-36
2022/08/15 05:14:43;;;;;;;5.70;2.92;;;14.90;57.90;;;;;;5052996;28;20199;-36
2022/08/15 05:17:13;;;;;;;5.88;3.00;;;14.90;57.90;;;;;;5053493;28;20234;-37
2022/08/15 05:19:44;;;;;;;5.78;2.78;;;14.90;58.00;;;;;;5054200;28;20202;-36
2022/08/15 05:22:16;;;;;;;4.50;2.90;;;14.90;58.00;;;;;;5053142;28;20333;-36
2022/08/15 05:24:47;;;;;;;3.78;2.55;;;14.90;58.00;;;;;;5053208;28;20195;-36
2022/08/15 05:27:18;;;;;;;4.85;2.60;;;14.90;58.00;;;;;;5053528;28;20219;-37
2022/08/15 05:29:51;;;;;;;3.80;2.47;;;14.90;58.00;;;;;;5052989;28;20213;-37
2022/08/15 05:32:22;;;;;;;5.53;2.80;;;14.90;58.00;;;;;;5053399;28;20824;-36
2022/08/15 05:34:53;;;;;;;3.78;2.90;;;14.90;58.00;;;;;;5052566;28;20199;-36
2022/08/15 05:37:24;;;;;;;4.20;2.80;;;14.90;58.00;;;;;;5052346;28;20225;-37
2022/08/15 05:39:55;;;;;;;4.05;2.65;;;14.90;58.00;;;;;;5052868;28;20689;-37
2022/08/15 05:42:36;;;;;;;6.07;3.03;;;14.90;58.00;;;;;;5048397;28;20210;-39
2022/08/15 05:45:17;;;;;;;5.63;2.97;;;14.90;58.00;;;;;;5053572;28;20191;-36
2022/08/15 05:47:55;;;;;;;5.70;2.40;;;14.90;58.00;;;;;;5052825;28;20247;-36
2022/08/15 05:50:32;;;;;;;4.63;2.72;;;14.90;57.90;;;;;;5046799;28;20192;-37
2022/08/15 05:53:10;;;;;;;5.57;3.00;;;14.90;57.90;;;;;;5033355;28;20632;-41
2022/08/15 05:55:47;;;;;;;4.60;2.75;;;14.90;57.90;;;;;;5032451;28;20192;-38
2022/08/15 05:58:40;;;;;;;5.03;2.80;;;14.90;57.90;;;;;;5033413;28;20192;-37
2022/08/15 06:01:17;;;;;;;4.95;2.72;;;14.90;58.00;;;;;;5032764;28;20204;-39
2022/08/15 06:03:56;;;;;;;3.53;2.70;;;14.90;57.90;;;;;;5032725;28;20195;-37
2022/08/15 06:06:32;;;;;;;4.53;2.67;;;14.90;57.90;;;;;;5032268;28;20235;-42
2022/08/15 06:09:09;;;;;;;4.90;2.53;;;14.90;58.00;;;;;;5033200;28;20192;-36
2022/08/15 06:11:46;;;;;;;3.50;2.83;;;14.90;57.90;;;;;;5032103;28;20211;-39
2022/08/15 06:14:33;;;;;;;5.20;2.95;;;14.90;58.00;;;;;;5032043;28;20692;-38
2022/08/15 06:17:08;;;;;;;6.25;3.67;;;14.80;57.90;;;;;;5032338;28;20578;-36
2022/08/15 06:19:44;;;;;;;5.13;3.47;;;14.80;57.90;;;;;;5032753;28;20682;-40
2022/08/15 06:22:58;;;;;;;4.75;3.40;;;14.80;57.90;;;;;;5031974;28;20207;-37
2022/08/15 06:25:34;;;;;;;6.80;3.38;;;14.80;58.00;;;;;;5038355;28;20184;-37
2022/08/15 06:28:18;;;;;;;6.07;3.50;;;14.80;57.90;;;;;;5040886;28;20207;-36
2022/08/15 06:30:59;;;;;;;5.78;3.83;;;14.80;57.90;;;;;;5048326;28;20198;-36
2022/08/15 06:33:41;;;;;;;5.65;3.97;;;14.80;57.90;;;;;;5051526;28;20223;-36
2022/08/15 06:36:18;;;;;;;5.60;3.97;;;14.80;57.90;;;;;;5052440;28;20219;-36
2022/08/15 06:38:56;;;;;;;6.25;4.30;;;14.80;57.90;;;;;;5051663;28;20195;-36
2022/08/15 06:41:36;;;;;;;7.10;4.85;;;14.70;57.80;;;;;;5051616;28;20195;-37
2022/08/15 06:44:08;;;;;;;7.82;4.72;;;14.70;57.90;;;;;;5052003;28;20210;-37
2022/08/15 06:46:40;;;;;;;8.25;4.72;;;14.70;57.90;;;;;;5051413;28;20215;-42
2022/08/15 06:49:16;;;;;;;6.88;5.10;;;14.70;57.90;;;;;;5052146;28;20199;-36
2022/08/15 06:51:47;;;;;;;8.90;5.15;;;14.60;57.90;;;;;;5052310;28;20203;-36
2022/08/15 06:54:23;;;;;;;7.03;5.32;;;14.70;57.90;;;;;;5052225;28;20235;-38
2022/08/15 06:57:02;;;;;;;7.63;4.70;;;14.70;57.90;;;;;;5050703;28;20307;-36
2022/08/15 06:59:41;;;;;;;8.13;4.63;;;14.60;57.90;;;;;;5051724;28;20195;-43
2022/08/15 07:02:21;;;;;;;8.65;5.20;;;14.60;57.90;;;;;;5050612;28;20682;-35
2022/08/15 07:05:07;;;;;;;7.95;5.20;;;14.60;57.90;;;;;;5052145;28;20199;-37
2022/08/15 07:07:47;;;;;;;9.15;5.10;;;14.60;57.90;;;;;;5051176;28;20215;-37
2022/08/15 07:10:27;;;;;;;6.95;4.63;;;14.60;57.90;;;;;;5051993;28;20211;-38
2022/08/15 07:13:04;;;;;;;8.98;5.28;;;14.50;57.90;;;;;;5051025;28;20292;-36
2022/08/15 07:15:48;;;;;;;7.00;5.32;;;14.50;57.90;;;;;;5048478;28;20192;-36
2022/08/15 07:18:25;;;;;;;9.15;4.35;;;14.50;57.90;;;;;;5036621;28;20207;-36
2022/08/15 07:21:06;;;;;;;7.47;4.65;;;14.50;57.90;;;;;;5032287;28;20208;-36
2022/08/15 07:23:38;;;;;;;7.53;5.10;;;14.50;57.90;;;;;;5032251;28;20196;-37
2022/08/15 07:26:12;;;;;;;8.02;4.88;;;14.50;57.90;;;;;;5033984;28;20227;-37
2022/08/15 07:28:52;;;;;;;8.02;4.85;;;14.50;57.90;;;;;;5051420;28;20211;-36
2022/08/15 07:31:29;;;;;;;9.27;4.75;;;14.40;57.90;;;;;;5051714;28;20253;-37
2022/08/15 07:34:08;;;;;;;10.20;5.32;;;14.40;57.90;;;;;;5066143;28;20222;-36
2022/08/15 07:36:51;;;;;;;7.95;4.75;;;14.40;57.80;;;;;;5071080;28;20229;-39
2022/08/15 07:39:28;;;;;;;7.20;4.82;;;14.40;57.90;;;;;;5071125;28;20206;-37
2022/08/15 07:42:00;;;;;;;7.78;5.22;;;14.40;57.80;;;;;;5071247;28;20206;-36
2022/08/15 07:44:32;;;;;;;6.97;4.80;;;14.30;57.80;;;;;;5071437;28;20667;-39
2022/08/15 07:47:09;;;;;;;7.05;5.00;;;14.40;57.90;;;;;;5071446;28;20264;-39
2022/08/15 07:49:41;;;;;;;7.35;4.50;;;14.30;57.90;;;;;;5071530;28;20238;-39
2022/08/15 07:52:25;;;;;;;6.28;5.28;;;14.30;57.90;;;;;;5071450;28;20669;-36
2022/08/15 07:54:58;;;;;;;8.00;4.97;;;14.30;57.90;;;;;;5070796;28;20206;-36
2022/08/15 07:57:32;;;;;;;7.53;4.68;;;14.30;57.90;;;;;;5056680;28;20235;-44
2022/08/15 08:00:16;;;;;;;7.13;4.93;;;14.30;57.90;;;;;;5051585;28;20643;-39
2022/08/15 08:02:53;;;;;;;7.32;4.90;;;14.30;58.10;;;;;;5054038;28;20225;-45
2022/08/15 08:05:27;;;;;;;6.20;4.45;;;14.20;57.90;;;;;;5070716;28;20198;-45
2022/08/15 08:08:01;;;;;;;6.35;4.57;;;14.20;58.40;;;;;;5070202;28;20219;-37
2022/08/15 08:10:37;;;;;;;6.80;4.53;;;14.20;57.80;;;;;;5071143;28;20203;-38
2022/08/15 08:13:35;;;;;;;6.18;4.40;;;14.20;57.80;;;;;;5070895;28;20226;-35
2022/08/15 08:16:13;;;;;;;6.93;5.18;;;14.20;57.90;;;;;;5070279;28;20284;-35
2022/08/15 08:18:50;;;;;;;7.03;4.60;;;14.20;57.90;;;;;;5069834;28;20198;-36
2022/08/15 08:21:24;;;;;;;7.32;4.35;;;14.10;57.90;;;;;;5070376;28;20232;-38
2022/08/15 08:24:01;;;;;;;6.40;4.35;;;14.10;57.90;;;;;;5070668;28;20201;-38
2022/08/15 08:26:38;;;;;;;6.00;4.60;;;14.10;57.90;;;;;;5064292;28;20222;-36
2022/08/15 08:29:19;;;;;;;7.32;4.85;;;14.10;57.90;;;;;;5050804;28;20203;-35
2022/08/15 08:32:02;;;;;;;5.68;4.20;;;14.10;58.00;;;;;;5051089;28;20655;-47
2022/08/15 08:34:42;;;;;;;6.75;4.18;;;14.00;57.90;;;;;;5051015;28;20223;-42
2022/08/15 08:37:22;;;;;;;8.75;6.95;;;14.00;57.20;;;;;;5050028;28;20219;-53
2022/08/15 08:41:24;;;;;;;7.72;6.80;;;13.90;56.70;;;;;;5050096;28;20547;-36
2022/08/15 08:43:05;;;;;;;10.68;6.10;;;13.70;57.00;;;;;;5050750;28;20239;-35
2022/08/15 08:45:44;;;;;;;8.27;5.32;;;13.60;57.80;;;;;;5050563;28;20210;-36
2022/08/15 08:48:35;;;;;;;7.80;5.05;;;13.60;58.50;;;;;;5055205;28;20278;-36
2022/08/15 08:51:14;;;;;;;8.70;4.90;;;13.70;59.00;;;;;;5070422;28;20277;-35
2022/08/15 08:53:53;;;;;;;6.90;4.65;;;13.70;59.30;;;;;;5070417;28;20222;-38
2022/08/15 08:56:30;;;;;;;6.38;4.55;;;13.70;59.50;;;;;;5065185;28;20273;-41
2022/08/15 08:59:11;;;;;;;7.40;4.30;;;13.70;59.70;;;;;;5050552;28;20195;-37
2022/08/15 09:01:43;;;;;;;5.60;4.13;;;13.70;59.90;;;;;;5050464;28;20202;-35
2022/08/15 09:04:17;;;;;;;6.78;4.57;;;13.80;59.70;;;;;;5062616;28;20273;-35
2022/08/15 09:06:49;;;;;;;5.97;4.68;;;13.80;59.60;;;;;;5070357;28;20218;-35
2022/08/15 09:09:30;;;;;;;5.70;4.40;;;13.80;59.50;;;;;;5070563;28;20609;-36
2022/08/15 09:14:57;;;;;;;5.60;4.20;;;13.80;59.30;;;;;;5070585;28;20229;-35
2022/08/15 09:17:29;;;;;;;6.35;4.60;;;13.80;59.30;;;;;;5061008;28;20215;-39
2022/08/15 09:20:06;;;;;;;10.30;4.57;;;13.80;59.20;;;;;;5049950;28;20207;-45
2022/08/15 09:22:36;;;;;;;8.05;4.35;;;13.80;59.10;;;;;;5047788;28;20253;-48
2022/08/15 09:25:08;;;;;;;7.32;4.38;;;13.80;59.10;;;;;;5032463;28;20212;-38
2022/08/15 09:27:52;;;;;;;4.97;4.10;;;13.70;59.00;;;;;;5045394;28;20219;-45
2022/08/15 09:30:24;;;;;;;5.63;4.00;;;13.70;59.00;;;;;;5049450;28;20203;-38
2022/08/15 09:33:06;;;;;;;7.05;4.45;;;13.70;58.90;;;;;;5049142;28;20188;-36
2022/08/15 09:36:00;;;;;;;6.25;4.20;;;13.70;58.90;;;;;;5047687;28;20192;-39
2022/08/15 09:38:43;;;;;;;5.25;3.80;;;13.70;58.80;;;;;;5029557;28;20195;-37
2022/08/15 09:41:47;;;;;;;7.85;4.28;;;13.70;58.80;;;;;;5029004;28;20667;-56
2022/08/15 09:44:34;;;;;;;5.95;3.70;;;13.70;58.80;;;;;;5029949;28;20196;-39
2022/08/15 09:47:41;;;;;;;5.93;3.97;;;13.70;58.70;;;;;;5028688;28;20310;-36
2022/08/15 09:50:30;;;;;;;4.80;3.60;;;13.70;58.70;;;;;;4970955;28;20670;-35
2022/08/15 09:53:09;;;;;;;4.40;3.80;;;13.70;58.70;;;;;;5028111;28;20188;-35
2022/08/15 09:55:44;;;;;;;5.97;3.80;;;13.70;58.70;;;;;;5032789;28;20203;-35
2022/08/15 09:58:20;;;;;;;4.70;3.97;;;13.70;58.60;;;;;;5032498;28;20196;-35
2022/08/15 10:01:05;;;;;;;4.50;3.55;;;13.70;58.60;;;;;;5033654;28;20204;-35
2022/08/15 10:03:58;;;;;;;5.18;3.67;;;13.70;58.60;;;;;;5033349;28;20282;-35
2022/08/15 10:06:32;;;;;;;5.43;3.80;;;13.70;58.60;;;;;;5032608;28;20712;-35
2022/08/15 10:09:31;;;;;;;4.70;3.65;;;13.70;58.60;;;;;;5032791;28;20203;-40
2022/08/15 10:12:32;;;;;;;6.72;3.70;;;13.60;58.50;;;;;;5033706;28;20196;-36
2022/08/15 10:15:06;;;;;;;4.97;3.55;;;13.70;58.60;;;;;;5052551;28;20226;-35
2022/08/15 10:17:47;;;;;;;4.13;3.40;;;13.70;58.60;;;;;;5052153;28;20219;-38
2022/08/15 10:20:52;;;;;;;6.53;3.42;;;13.60;58.50;;;;;;5052339;28;20285;-34
2022/08/15 10:23:30;;;;;;;4.93;3.20;;;13.60;58.50;;;;;;5052357;28;20204;-35
2022/08/15 10:26:26;;;;;;;3.53;3.20;;;13.60;58.50;;;;;;5051974;28;20581;-45
2022/08/15 10:29:03;;;;;;;3.30;3.00;;;13.60;58.50;;;;;;5046047;28;20326;-35
2022/08/15 10:31:42;;;;;;;5.95;3.75;;;13.60;58.50;;;;;;5052098;28;20203;-35
2022/08/15 10:34:32;;;;;;;4.70;3.15;;;13.60;58.50;;;;;;5052138;28;20222;-35
2022/08/15 10:37:20;;;;;;;5.22;3.50;;;13.60;58.50;;;;;;5051924;28;20262;-35
2022/08/15 10:40:06;;;;;;;4.45;3.03;;;13.60;58.50;;;;;;5052075;28;20227;-37
2022/08/15 10:42:45;;;;;;;5.60;3.03;;;13.60;58.50;;;;;;5050657;28;20230;-37
2022/08/15 10:45:21;;;;;;;5.25;3.35;;;13.60;58.40;;;;;;5049983;28;20199;-35
2022/08/15 10:48:04;;;;;;;4.13;3.10;;;13.60;58.40;;;;;;5051745;28;20215;-35
2022/08/15 10:50:48;;;;;;;3.78;3.00;;;13.60;58.50;;;;;;5052437;28;20191;-35
2022/08/15 10:53:31;;;;;;;4.88;3.03;;;13.60;58.50;;;;;;5050725;28;20195;-35
2022/08/15 10:56:16;;;;;;;4.45;2.90;;;13.60;58.50;;;;;;5051561;28;20218;-35
2022/08/15 10:58:49;;;;;;;3.40;3.10;;;13.60;58.80;;;;;;5050875;28;20191;-37
2022/08/15 11:01:24;;;;;;;4.25;3.15;;;13.60;58.90;;;;;;5050365;28;20655;-47
2022/08/15 11:04:01;;;;;;;4.38;2.70;;;13.60;58.90;;;;;;5051409;28;20205;-35
2022/08/15 11:06:40;;;;;;;5.03;2.92;;;13.60;58.90;;;;;;5051845;28;20215;-41
2022/08/15 11:09:12;;;;;;;4.15;2.90;;;13.60;58.80;;;;;;5050412;28;20655;-35
2022/08/15 11:11:47;;;;;;;3.15;2.50;;;13.60;58.80;;;;;;5051381;28;20195;-35
2022/08/15 11:14:24;;;;;;;4.72;2.90;;;13.60;58.70;;;;;;5031643;28;20258;-35
2022/08/15 11:16:56;;;;;;;3.45;2.90;;;13.60;58.70;;;;;;5031593;28;20215;-35
2022/08/15 11:19:30;;;;;;;3.35;2.83;;;13.60;58.70;;;;;;5031591;28;20200;-35
2022/08/15 11:22:06;;;;;;;3.97;2.80;;;13.60;58.70;;;;;;5030776;28;20196;-35
2022/08/15 11:24:39;;;;;;;5.18;2.72;;;13.60;58.70;;;;;;5031885;28;20196;-37
2022/08/15 11:27:16;;;;;;;3.38;2.63;;;13.50;58.60;;;;;;5042668;28;20231;-34
2022/08/15 11:29:48;;;;;;;4.47;3.10;;;13.50;58.60;;;;;;5049914;28;20667;-35
2022/08/15 11:32:28;;;;;;;3.75;2.92;;;13.50;58.60;;;;;;5049439;28;20192;-38
2022/08/15 11:34:59;;;;;;;3.15;2.45;;;13.50;59.20;;;;;;5051173;28;20219;-35
2022/08/15 11:37:34;;;;;;;4.00;2.63;;;13.50;58.60;;;;;;5051064;28;20215;-35
2022/08/15 11:40:09;;;;;;;4.28;2.65;;;13.50;58.50;;;;;;5051319;28;20630;-36
2022/08/15 11:42:43;;;;;;;3.17;2.53;;;13.50;58.60;;;;;;5050525;28;20225;-35
2022/08/15 11:45:17;;;;;;;3.13;2.50;;;13.50;58.50;;;;;;5050083;28;20290;-37
2022/08/15 11:47:51;;;;;;;3.95;2.70;;;13.50;58.50;;;;;;5050056;28;20675;-35
2022/08/15 11:50:28;;;;;;;3.92;2.75;;;13.50;58.50;;;;;;5050296;28;20201;-35
2022/08/15 11:53:02;;;;;;;3.58;2.67;;;13.50;58.50;;;;;;5049561;28;20554;-35
2022/08/15 11:55:47;;;;;;;3.63;2.65;;;13.40;58.50;;;;;;5049712;28;20230;-40
2022/08/15 11:58:32;;;;;;;3.42;2.30;;;13.40;58.50;;;;;;5029798;28;20200;-35
2022/08/15 12:01:21;;;;;;;3.55;2.55;;;13.40;58.50;;;;;;5029796;28;20195;-35
2022/08/15 12:04:04;;;;;;;4.68;2.47;;;13.40;58.60;;;;;;5029702;28;20212;-36
2022/08/15 12:06:38;;;;;;;3.45;2.40;;;13.40;58.50;;;;;;5029184;28;20222;-35
2022/08/15 12:09:14;;;;;;;2.35;2.15;;;13.40;58.50;;;;;;5059406;28;20234;-38
2022/08/15 12:11:50;;;;;;;3.70;2.47;;;13.40;58.50;;;;;;5068913;28;20320;-38
2022/08/15 12:14:24;;;;;;;3.33;2.47;;;13.40;58.50;;;;;;5069146;28;20767;-44
2022/08/15 12:16:59;;;;;;;3.45;2.25;;;13.40;58.40;;;;;;5069052;28;20219;-40
2022/08/15 12:19:40;;;;;;;3.13;2.30;;;13.40;58.40;;;;;;5069120;28;20207;-39
2022/08/15 12:22:14;;;;;;;2.97;2.47;;;13.40;58.40;;;;;;5069489;28;20205;-39
2022/08/15 12:24:48;;;;;;;3.88;2.58;;;13.40;58.40;;;;;;5068652;28;20233;-38
2022/08/15 12:27:20;;;;;;;3.20;2.40;;;13.40;58.40;;;;;;5056246;28;20246;-35
2022/08/15 12:29:50;;;;;;;3.08;2.42;;;13.40;58.40;;;;;;5049220;28;20197;-35
2022/08/15 12:32:22;;;;;;;3.88;2.72;;;13.30;58.40;;;;;;5049469;28;20204;-38
2022/08/15 12:34:55;;;;;;;2.97;2.33;;;13.30;58.40;;;;;;5049408;28;20742;-35
2022/08/15 12:37:28;;;;;;;2.60;2.40;;;13.30;58.40;;;;;;5048207;28;20718;-35
2022/08/15 14:00:52;;;;;;;2.15;1.92;;;13.20;58.40;;;;;;5052160;28;20831;-46
2022/08/15 14:03:23;;;;;;;3.42;2.42;;;13.30;58.40;;;;;;5052081;28;20199;-46
2022/08/15 14:05:54;;;;;;;2.80;2.13;;;13.30;58.40;;;;;;5051508;28;20200;-35
2022/08/15 14:08:25;;;;;;;3.08;1.92;;;13.30;58.50;;;;;;5054154;28;20206;-40
2022/08/15 14:10:57;;;;;;;3.20;2.15;;;13.30;58.50;;;;;;5072027;28;20194;-35
2022/08/15 14:13:27;;;;;;;2.47;2.13;;;13.30;58.50;;;;;;5071743;28;20209;-44
2022/08/15 14:16:00;;;;;;;3.63;2.25;;;13.30;58.50;;;;;;5071429;28;20218;-35
2022/08/15 14:18:35;;;;;;;3.10;2.00;;;13.30;58.40;;;;;;5071964;28;20248;-38
2022/08/15 14:21:06;;;;;;;2.88;2.00;;;13.30;58.40;;;;;;5072040;28;20202;-35
2022/08/15 14:23:37;;;;;;;3.70;2.20;;;13.20;58.40;;;;;;5071187;28;20199;-35
2022/08/15 14:26:08;;;;;;;2.20;2.00;;;13.30;58.40;;;;;;5068706;28;20220;-35
2022/08/15 14:28:39;;;;;;;2.28;1.88;;;13.30;58.40;;;;;;5051414;28;20665;-35
2022/08/15 14:31:12;;;;;;;3.85;1.90;;;13.30;58.40;;;;;;5051278;28;20195;-35
2022/08/15 14:33:43;;;;;;;3.00;1.95;;;13.30;58.40;;;;;;5051872;28;20511;-35
2022/08/15 14:36:15;;;;;;;3.35;1.83;;;13.30;58.30;;;;;;5050782;28;20219;-38
2022/08/15 14:38:45;;;;;;;2.33;1.80;;;13.30;58.30;;;;;;5049230;28;20192;-35
2022/08/15 14:41:16;;;;;;;4.03;2.30;;;13.30;58.30;;;;;;5051231;28;20192;-35
2022/08/15 14:43:47;;;;;;;2.33;2.10;;;13.30;58.30;;;;;;5051318;28;20195;-40
2022/08/15 14:46:22;;;;;;;2.65;2.10;;;13.30;58.30;;;;;;5051288;28;20223;-36
2022/08/15 14:48:54;;;;;;;2.97;2.20;;;13.30;58.30;;;;;;5051265;28;20670;-35
2022/08/15 14:51:29;;;;;;;2.35;2.03;;;13.30;58.30;;;;;;5051083;28;20196;-35
2022/08/15 14:54:00;;;;;;;2.92;2.05;;;13.30;58.30;;;;;;5056216;28;20209;-39